sensor_id;sensor_type;location;lat;lon;timestamp;pressure;altitude;pressure_sealevel;temperature;humidity
17362;BME280;8798;51.938;4.348;2023-04-06T00:01:58;101624.97;;;10.27;52.98
17362;BME280;8798;51.938;4.348;2023-04-06T00:04:26;101610.09;;;10.23;52.89
17362;BME280;8798;51.938;4.348;2023-04-06T00:06:54;101602.31;;;10.20;53.09
17362;BME280;8798;51.938;4.348;2023-04-06T00:09:24;101591.84;;;10.17;53.16
17362;BME280;8798;51.938;4.348;2023-04-06T00:11:52;101582.22;;;10.15;52.94
17362;BME280;8798;51.938;4.348;2023-04-06T00:14:20;101570.88;;;10.11;52.80
17362;BME280;8798;51.938;4.348;2023-04-06T00:16:47;101558.56;;;10.08;52.84
17362;BME280;8798;51.938;4.348;2023-04-06T00:19:15;101550.78;;;10.05;52.33
17362;BME280;8798;51.938;4.348;2023-04-06T00:21:43;101552.63;;;10.05;52.57
17362;BME280;8798;51.938;4.348;2023-04-06T00:24:11;101541.28;;;10.01;52.28
17362;BME280;8798;51.938;4.348;2023-04-06T00:26:40;101539.00;;;9.97;52.57
17362;BME280;8798;51.938;4.348;2023-04-06T00:29:08;101526.56;;;9.96;52.58
17362;BME280;8798;51.938;4.348;2023-04-06T00:31:36;101512.56;;;9.92;52.65
17362;BME280;8798;51.938;4.348;2023-04-06T00:34:05;101507.44;;;9.89;52.77
17362;BME280;8798;51.938;4.348;2023-04-06T00:36:33;101497.97;;;9.85;52.38
17362;BME280;8798;51.938;4.348;2023-04-06T00:39:01;101489.47;;;9.80;52.48
17362;BME280;8798;51.938;4.348;2023-04-06T00:41:28;101466.66;;;9.74;52.42
17362;BME280;8798;51.938;4.348;2023-04-06T00:43:58;101454.38;;;9.72;52.44
17362;BME280;8798;51.938;4.348;2023-04-06T00:46:25;101447.44;;;9.69;52.31
17362;BME280;8798;51.938;4.348;2023-04-06T00:48:53;101442.34;;;9.66;52.66
17362;BME280;8798;51.938;4.348;2023-04-06T00:51:22;101446.00;;;9.65;52.28
17362;BME280;8798;51.938;4.348;2023-04-06T00:53:51;101435.66;;;9.60;52.17
17362;BME280;8798;51.938;4.348;2023-04-06T00:56:19;101424.22;;;9.58;52.62
17362;BME280;8798;51.938;4.348;2023-04-06T00:58:47;101417.41;;;9.54;52.33
17362;BME280;8798;51.938;4.348;2023-04-06T01:01:17;101411.47;;;9.51;52.33
17362;BME280;8798;51.938;4.348;2023-04-06T01:03:45;101404.41;;;9.50;52.75
17362;BME280;8798;51.938;4.348;2023-04-06T01:06:15;101397.59;;;9.45;52.25
17362;BME280;8798;51.938;4.348;2023-04-06T01:08:43;101396.75;;;9.45;52.44
17362;BME280;8798;51.938;4.348;2023-04-06T01:11:11;101398.72;;;9.43;52.57
17362;BME280;8798;51.938;4.348;2023-04-06T01:13:38;101399.69;;;9.42;52.24
17362;BME280;8798;51.938;4.348;2023-04-06T01:16:07;101403.22;;;9.42;52.37
17362;BME280;8798;51.938;4.348;2023-04-06T01:18:38;101407.72;;;9.42;52.15
17362;BME280;8798;51.938;4.348;2023-04-06T01:21:06;101415.66;;;9.43;52.22
17362;BME280;8798;51.938;4.348;2023-04-06T01:23:36;101409.56;;;9.41;52.18
17362;BME280;8798;51.938;4.348;2023-04-06T01:26:04;101421.00;;;9.43;52.44
17362;BME280;8798;51.938;4.348;2023-04-06T01:28:32;101434.41;;;9.43;52.34
17362;BME280;8798;51.938;4.348;2023-04-06T01:31:00;101431.75;;;9.43;52.02
17362;BME280;8798;51.938;4.348;2023-04-06T01:33:28;101435.41;;;9.42;52.39
17362;BME280;8798;51.938;4.348;2023-04-06T01:35:55;101433.56;;;9.43;52.46
17362;BME280;8798;51.938;4.348;2023-04-06T01:38:23;101430.16;;;9.41;52.00
17362;BME280;8798;51.938;4.348;2023-04-06T01:40:53;101426.63;;;9.40;52.26
17362;BME280;8798;51.938;4.348;2023-04-06T01:43:21;101435.53;;;9.41;52.40
17362;BME280;8798;51.938;4.348;2023-04-06T01:45:49;101443.56;;;9.41;52.36
17362;BME280;8798;51.938;4.348;2023-04-06T01:48:18;101444.56;;;9.40;52.41
17362;BME280;8798;51.938;4.348;2023-04-06T01:50:46;101452.34;;;9.43;52.33
17362;BME280;8798;51.938;4.348;2023-04-06T01:53:14;101460.38;;;9.43;52.48
17362;BME280;8798;51.938;4.348;2023-04-06T01:55:42;101463.06;;;9.43;52.04
17362;BME280;8798;51.938;4.348;2023-04-06T01:58:12;101468.28;;;9.44;52.58
17362;BME280;8798;51.938;4.348;2023-04-06T02:00:40;101468.53;;;9.41;52.53
17362;BME280;8798;51.938;4.348;2023-04-06T02:03:08;101469.53;;;9.40;52.66
17362;BME280;8798;51.938;4.348;2023-04-06T02:05:36;101462.47;;;9.39;52.40
17362;BME280;8798;51.938;4.348;2023-04-06T02:08:05;101461.63;;;9.39;52.69
17362;BME280;8798;51.938;4.348;2023-04-06T02:10:33;101464.44;;;9.37;52.46
17362;BME280;8798;51.938;4.348;2023-04-06T02:13:01;101470.50;;;9.39;52.52
17362;BME280;8798;51.938;4.348;2023-04-06T02:15:30;101476.75;;;9.40;52.51
17362;BME280;8798;51.938;4.348;2023-04-06T02:17:59;101464.44;;;9.37;52.35
17362;BME280;8798;51.938;4.348;2023-04-06T02:20:27;101457.50;;;9.35;52.36
17362;BME280;8798;51.938;4.348;2023-04-06T02:22:56;101462.88;;;9.35;52.43
17362;BME280;8798;51.938;4.348;2023-04-06T02:25:24;101447.16;;;9.30;52.38
17362;BME280;8798;51.938;4.348;2023-04-06T02:27:52;101436.69;;;9.27;52.54
17362;BME280;8798;51.938;4.348;2023-04-06T02:30:20;101435.84;;;9.26;52.71
17362;BME280;8798;51.938;4.348;2023-04-06T02:32:49;101435.97;;;9.25;52.48
17362;BME280;8798;51.938;4.348;2023-04-06T02:35:17;101447.53;;;9.25;52.65
17362;BME280;8798;51.938;4.348;2023-04-06T02:37:45;101444.88;;;9.25;52.40
17362;BME280;8798;51.938;4.348;2023-04-06T02:40:14;101452.75;;;9.27;52.33
17362;BME280;8798;51.938;4.348;2023-04-06T02:42:41;101462.53;;;9.28;52.77
17362;BME280;8798;51.938;4.348;2023-04-06T02:45:09;101456.31;;;9.28;52.74
17362;BME280;8798;51.938;4.348;2023-04-06T02:47:37;101468.72;;;9.29;52.29
17362;BME280;8798;51.938;4.348;2023-04-06T02:50:07;101467.88;;;9.28;52.77
17362;BME280;8798;51.938;4.348;2023-04-06T02:52:35;101465.19;;;9.28;52.62
17362;BME280;8798;51.938;4.348;2023-04-06T02:55:04;101475.94;;;9.28;52.67
17362;BME280;8798;51.938;4.348;2023-04-06T02:57:34;101472.25;;;9.29;52.59
17362;BME280;8798;51.938;4.348;2023-04-06T03:00:03;101473.25;;;9.28;52.65
17362;BME280;8798;51.938;4.348;2023-04-06T03:02:31;101478.59;;;9.28;52.68
17362;BME280;8798;51.938;4.348;2023-04-06T03:04:58;101471.53;;;9.27;52.66
17362;BME280;8798;51.938;4.348;2023-04-06T03:07:28;101480.56;;;9.26;52.83
17362;BME280;8798;51.938;4.348;2023-04-06T03:09:56;101483.25;;;9.26;52.80
17362;BME280;8798;51.938;4.348;2023-04-06T03:12:23;101482.25;;;9.27;52.74
17362;BME280;8798;51.938;4.348;2023-04-06T03:14:51;101470.84;;;9.25;52.67
17362;BME280;8798;51.938;4.348;2023-04-06T03:17:19;101483.25;;;9.26;52.53
17362;BME280;8798;51.938;4.348;2023-04-06T03:19:47;101483.25;;;9.26;52.75
17362;BME280;8798;51.938;4.348;2023-04-06T03:22:15;101492.00;;;9.28;52.78
17362;BME280;8798;51.938;4.348;2023-04-06T03:24:44;101498.22;;;9.29;52.93
17362;BME280;8798;51.938;4.348;2023-04-06T03:27:11;101504.44;;;9.29;52.76
17362;BME280;8798;51.938;4.348;2023-04-06T03:29:39;101498.22;;;9.29;53.00
17362;BME280;8798;51.938;4.348;2023-04-06T03:32:07;101504.31;;;9.31;53.36
17362;BME280;8798;51.938;4.348;2023-04-06T03:34:37;101516.59;;;9.33;52.92
17362;BME280;8798;51.938;4.348;2023-04-06T03:37:05;101512.25;;;9.32;52.96
17362;BME280;8798;51.938;4.348;2023-04-06T03:39:36;101524.53;;;9.35;53.40
17362;BME280;8798;51.938;4.348;2023-04-06T03:42:05;101529.03;;;9.34;53.28
17362;BME280;8798;51.938;4.348;2023-04-06T03:44:33;101537.78;;;9.36;53.13
17362;BME280;8798;51.938;4.348;2023-04-06T03:47:01;101541.31;;;9.37;53.39
17362;BME280;8798;51.938;4.348;2023-04-06T03:49:29;101548.25;;;9.39;53.28
17362;BME280;8798;51.938;4.348;2023-04-06T03:51:57;101545.56;;;9.39;53.09
17362;BME280;8798;51.938;4.348;2023-04-06T03:54:24;101548.25;;;9.39;53.28
17362;BME280;8798;51.938;4.348;2023-04-06T03:56:52;101529.03;;;9.34;53.37
17362;BME280;8798;51.938;4.348;2023-04-06T03:59:21;101534.53;;;9.33;53.39
17362;BME280;8798;51.938;4.348;2023-04-06T04:01:49;101527.34;;;9.33;53.36
17362;BME280;8798;51.938;4.348;2023-04-06T04:04:17;101540.63;;;9.35;53.32
17362;BME280;8798;51.938;4.348;2023-04-06T04:06:45;101541.31;;;9.37;53.32
17362;BME280;8798;51.938;4.348;2023-04-06T04:09:13;101546.56;;;9.38;53.08
17362;BME280;8798;51.938;4.348;2023-04-06T04:11:41;101567.75;;;9.41;53.07
17362;BME280;8798;51.938;4.348;2023-04-06T04:14:09;101560.56;;;9.42;53.55
17362;BME280;8798;51.938;4.348;2023-04-06T04:16:38;101578.22;;;9.44;53.45
17362;BME280;8798;51.938;4.348;2023-04-06T04:19:08;101587.88;;;9.47;53.64
17362;BME280;8798;51.938;4.348;2023-04-06T04:21:42;101594.09;;;9.47;53.74
17362;BME280;8798;51.938;4.348;2023-04-06T04:24:10;101582.50;;;9.47;53.56
17362;BME280;8798;51.938;4.348;2023-04-06T04:26:38;101592.25;;;9.48;53.73
17362;BME280;8798;51.938;4.348;2023-04-06T04:29:07;101596.63;;;9.49;53.62
17362;BME280;8798;51.938;4.348;2023-04-06T04:31:35;101598.34;;;9.50;53.78
17362;BME280;8798;51.938;4.348;2023-04-06T04:34:04;101609.91;;;9.51;54.05
17362;BME280;8798;51.938;4.348;2023-04-06T04:36:33;101608.94;;;9.52;53.67
17362;BME280;8798;51.938;4.348;2023-04-06T04:39:01;101615.03;;;9.54;54.44
17362;BME280;8798;51.938;4.348;2023-04-06T04:41:29;101619.44;;;9.55;54.14
17362;BME280;8798;51.938;4.348;2023-04-06T04:43:57;101621.13;;;9.56;54.06
17362;BME280;8798;51.938;4.348;2023-04-06T04:46:25;101624.66;;;9.56;53.87
17362;BME280;8798;51.938;4.348;2023-04-06T04:48:53;101624.66;;;9.56;54.16
17362;BME280;8798;51.938;4.348;2023-04-06T04:51:22;101630.84;;;9.57;54.26
17362;BME280;8798;51.938;4.348;2023-04-06T04:53:51;101632.56;;;9.58;54.35
17362;BME280;8798;51.938;4.348;2023-04-06T04:56:19;101637.78;;;9.59;54.30
17362;BME280;8798;51.938;4.348;2023-04-06T04:58:46;101637.78;;;9.59;54.50
17362;BME280;8798;51.938;4.348;2023-04-06T05:01:14;101637.78;;;9.59;54.57
17362;BME280;8798;51.938;4.348;2023-04-06T05:03:42;101640.38;;;9.61;54.46
17362;BME280;8798;51.938;4.348;2023-04-06T05:06:10;101634.28;;;9.59;54.70
17362;BME280;8798;51.938;4.348;2023-04-06T05:08:40;101635.25;;;9.58;54.81
17362;BME280;8798;51.938;4.348;2023-04-06T05:11:08;101638.69;;;9.60;54.53
17362;BME280;8798;51.938;4.348;2023-04-06T05:13:36;101637.69;;;9.61;54.80
17362;BME280;8798;51.938;4.348;2023-04-06T05:16:04;101643.91;;;9.61;54.77
17362;BME280;8798;51.938;4.348;2023-04-06T05:18:32;101647.31;;;9.63;54.91
17362;BME280;8798;51.938;4.348;2023-04-06T05:21:00;101656.34;;;9.62;54.46
17362;BME280;8798;51.938;4.348;2023-04-06T05:23:28;101646.47;;;9.63;55.12
17362;BME280;8798;51.938;4.348;2023-04-06T05:25:57;101658.66;;;9.67;55.15
17362;BME280;8798;51.938;4.348;2023-04-06T05:28:25;101671.91;;;9.68;55.14
17362;BME280;8798;51.938;4.348;2023-04-06T05:30:53;101681.44;;;9.73;55.22
17362;BME280;8798;51.938;4.348;2023-04-06T05:33:21;101683.97;;;9.74;55.39
17362;BME280;8798;51.938;4.348;2023-04-06T05:35:52;101693.75;;;9.75;55.21
17362;BME280;8798;51.938;4.348;2023-04-06T05:38:20;101691.78;;;9.77;55.35
17362;BME280;8798;51.938;4.348;2023-04-06T05:40:47;101697.16;;;9.77;55.35
17362;BME280;8798;51.938;4.348;2023-04-06T05:43:16;101692.66;;;9.78;55.58
17362;BME280;8798;51.938;4.348;2023-04-06T05:45:48;101697.91;;;9.79;55.54
17362;BME280;8798;51.938;4.348;2023-04-06T05:48:16;101692.66;;;9.78;55.76
17362;BME280;8798;51.938;4.348;2023-04-06T05:50:47;101688.97;;;9.79;56.11
17362;BME280;8798;51.938;4.348;2023-04-06T05:53:15;101690.69;;;9.80;56.05
17362;BME280;8798;51.938;4.348;2023-04-06T05:55:43;101710.06;;;9.83;55.60
17362;BME280;8798;51.938;4.348;2023-04-06T05:58:11;101714.47;;;9.84;56.43
17362;BME280;8798;51.938;4.348;2023-04-06T06:00:40;101718.72;;;9.87;55.77
17362;BME280;8798;51.938;4.348;2023-04-06T06:03:09;101716.91;;;9.87;56.14
17362;BME280;8798;51.938;4.348;2023-04-06T06:05:37;101719.56;;;9.87;56.03
17362;BME280;8798;51.938;4.348;2023-04-06T06:08:05;101725.69;;;9.89;56.11
17362;BME280;8798;51.938;4.348;2023-04-06T06:10:33;101743.34;;;9.92;56.10
17362;BME280;8798;51.938;4.348;2023-04-06T06:13:01;101739.56;;;9.95;56.25
17362;BME280;8798;51.938;4.348;2023-04-06T06:15:28;101741.25;;;9.96;56.38
17362;BME280;8798;51.938;4.348;2023-04-06T06:17:58;101752.63;;;9.99;56.39
17362;BME280;8798;51.938;4.348;2023-04-06T06:20:26;101763.94;;;10.03;56.68
17362;BME280;8798;51.938;4.348;2023-04-06T06:22:53;101776.16;;;10.07;56.59
17362;BME280;8798;51.938;4.348;2023-04-06T06:25:22;101797.38;;;10.10;56.80
17362;BME280;8798;51.938;4.348;2023-04-06T06:27:51;101802.47;;;10.13;56.85
17362;BME280;8798;51.938;4.348;2023-04-06T06:30:19;101811.25;;;10.15;56.84
17362;BME280;8798;51.938;4.348;2023-04-06T06:32:49;101815.41;;;10.19;56.97
17362;BME280;8798;51.938;4.348;2023-04-06T06:35:19;101814.41;;;10.20;56.76
17362;BME280;8798;51.938;4.348;2023-04-06T06:37:47;101832.13;;;10.23;56.78
17362;BME280;8798;51.938;4.348;2023-04-06T06:40:15;101832.00;;;10.24;57.33
17362;BME280;8798;51.938;4.348;2023-04-06T06:42:44;101839.78;;;10.27;57.09
17362;BME280;8798;51.938;4.348;2023-04-06T06:45:12;101834.44;;;10.27;57.19
17362;BME280;8798;51.938;4.348;2023-04-06T06:47:40;101834.34;;;10.29;57.48
17362;BME280;8798;51.938;4.348;2023-04-06T06:50:08;101834.34;;;10.29;57.47
17362;BME280;8798;51.938;4.348;2023-04-06T06:52:37;101841.31;;;10.31;57.53
17362;BME280;8798;51.938;4.348;2023-04-06T06:55:07;101830.78;;;10.28;57.72
17362;BME280;8798;51.938;4.348;2023-04-06T06:57:35;101831.66;;;10.29;57.85
17362;BME280;8798;51.938;4.348;2023-04-06T07:00:04;101835.94;;;10.31;58.47
17362;BME280;8798;51.938;4.348;2023-04-06T07:02:34;101832.13;;;10.34;58.13
17362;BME280;8798;51.938;4.348;2023-04-06T07:05:02;101840.03;;;10.36;58.30
17362;BME280;8798;51.938;4.348;2023-04-06T07:07:52;101851.41;;;10.39;58.23
17362;BME280;8798;51.938;4.348;2023-04-06T07:10:19;101854.84;;;10.41;58.43
17362;BME280;8798;51.938;4.348;2023-04-06T07:12:48;101850.41;;;10.40;58.61
17362;BME280;8798;51.938;4.348;2023-04-06T07:15:16;101845.03;;;10.40;58.41
17362;BME280;8798;51.938;4.348;2023-04-06T07:17:44;101852.84;;;10.43;58.92
17362;BME280;8798;51.938;4.348;2023-04-06T07:20:12;101854.41;;;10.46;59.09
17362;BME280;8798;51.938;4.348;2023-04-06T07:22:42;101859.78;;;10.46;59.12
17362;BME280;8798;51.938;4.348;2023-04-06T07:25:12;101864.09;;;10.48;58.90
17362;BME280;8798;51.938;4.348;2023-04-06T07:27:40;101868.38;;;10.51;59.22
17362;BME280;8798;51.938;4.348;2023-04-06T07:30:09;101886.66;;;10.57;59.78
17362;BME280;8798;51.938;4.348;2023-04-06T07:32:37;101917.41;;;10.64;59.48
17362;BME280;8798;51.938;4.348;2023-04-06T07:35:05;101928.63;;;10.69;59.41
17362;BME280;8798;51.938;4.348;2023-04-06T07:37:33;101940.97;;;10.72;59.59
17362;BME280;8798;51.938;4.348;2023-04-06T07:40:00;101931.91;;;10.73;59.94
17362;BME280;8798;51.938;4.348;2023-04-06T07:42:31;101927.41;;;10.73;59.89
17362;BME280;8798;51.938;4.348;2023-04-06T07:44:59;101926.41;;;10.74;60.21
17362;BME280;8798;51.938;4.348;2023-04-06T07:47:27;101949.25;;;10.80;60.02
17362;BME280;8798;51.938;4.348;2023-04-06T07:49:55;101946.44;;;10.82;60.30
17362;BME280;8798;51.938;4.348;2023-04-06T07:52:23;101940.06;;;10.83;60.40
17362;BME280;8798;51.938;4.348;2023-04-06T07:54:51;101938.25;;;10.83;60.56
17362;BME280;8798;51.938;4.348;2023-04-06T07:57:19;101925.94;;;10.81;60.16
17362;BME280;8798;51.938;4.348;2023-04-06T07:59:48;101912.72;;;10.77;60.82
17362;BME280;8798;51.938;4.348;2023-04-06T08:02:16;101887.09;;;10.73;61.12
17362;BME280;8798;51.938;4.348;2023-04-06T08:04:44;101879.16;;;10.72;60.81
17362;BME280;8798;51.938;4.348;2023-04-06T08:07:12;101880.75;;;10.74;60.99
17362;BME280;8798;51.938;4.348;2023-04-06T08:09:40;101866.72;;;10.71;61.12
17362;BME280;8798;51.938;4.348;2023-04-06T08:12:08;101873.66;;;10.73;61.19
17362;BME280;8798;51.938;4.348;2023-04-06T08:14:35;101883.16;;;10.77;61.33
17362;BME280;8798;51.938;4.348;2023-04-06T08:17:05;101871.69;;;10.75;61.31
17362;BME280;8798;51.938;4.348;2023-04-06T08:19:32;101860.09;;;10.75;61.64
17362;BME280;8798;51.938;4.348;2023-04-06T08:22:00;101871.56;;;10.77;61.75
17362;BME280;8798;51.938;4.348;2023-04-06T08:24:28;101829.22;;;10.69;61.73
17362;BME280;8798;51.938;4.348;2023-04-06T08:26:58;101801.25;;;10.61;61.77
17362;BME280;8798;51.938;4.348;2023-04-06T08:29:27;101773.94;;;10.55;61.96
17362;BME280;8798;51.938;4.348;2023-04-06T08:31:54;101751.13;;;10.50;62.11
17362;BME280;8798;51.938;4.348;2023-04-06T08:34:24;101727.22;;;10.47;62.20
17362;BME280;8798;51.938;4.348;2023-04-06T08:36:52;101727.09;;;10.48;62.04
17362;BME280;8798;51.938;4.348;2023-04-06T08:39:19;101744.78;;;10.51;62.77
17362;BME280;8798;51.938;4.348;2023-04-06T08:41:52;101765.03;;;10.55;63.00
17362;BME280;8798;51.938;4.348;2023-04-06T08:44:23;101739.41;;;10.51;62.71
17362;BME280;8798;51.938;4.348;2023-04-06T08:46:51;101723.53;;;10.48;62.67
17362;BME280;8798;51.938;4.348;2023-04-06T08:49:21;101699.75;;;10.43;62.90
17362;BME280;8798;51.938;4.348;2023-04-06T08:51:51;101713.66;;;10.48;63.29
17362;BME280;8798;51.938;4.348;2023-04-06T08:54:19;101721.56;;;10.50;62.95
17362;BME280;8798;51.938;4.348;2023-04-06T08:56:47;101725.09;;;10.50;63.27
17362;BME280;8798;51.938;4.348;2023-04-06T08:59:16;101705.59;;;10.48;63.19
17362;BME280;8798;51.938;4.348;2023-04-06T09:01:44;101705.72;;;10.47;63.07
17362;BME280;8798;51.938;4.348;2023-04-06T09:04:13;101686.31;;;10.43;63.45
17362;BME280;8798;51.938;4.348;2023-04-06T09:06:42;101666.81;;;10.41;63.69
17362;BME280;8798;51.938;4.348;2023-04-06T09:09:12;101678.41;;;10.42;63.87
17362;BME280;8798;51.938;4.348;2023-04-06T09:11:44;101680.09;;;10.43;63.88
17362;BME280;8798;51.938;4.348;2023-04-06T09:14:13;101658.88;;;10.40;64.13
17362;BME280;8798;51.938;4.348;2023-04-06T09:16:45;101658.31;;;10.36;63.77
17362;BME280;8798;51.938;4.348;2023-04-06T09:19:13;101640.47;;;10.35;64.43
17362;BME280;8798;51.938;4.348;2023-04-06T09:21:41;101620.47;;;10.28;63.79
17362;BME280;8798;51.938;4.348;2023-04-06T09:24:09;101601.09;;;10.24;64.22
17362;BME280;8798;51.938;4.348;2023-04-06T09:26:47;101591.56;;;10.20;64.35
17362;BME280;8798;51.938;4.348;2023-04-06T09:29:22;101586.09;;;10.22;64.62
17362;BME280;8798;51.938;4.348;2023-04-06T09:31:52;101595.81;;;10.23;64.79
17362;BME280;8798;51.938;4.348;2023-04-06T09:34:29;101587.19;;;10.19;64.56
17362;BME280;8798;51.938;4.348;2023-04-06T09:36:57;101573.06;;;10.17;64.53
17362;BME280;8798;51.938;4.348;2023-04-06T09:39:25;101573.06;;;10.17;64.82
17362;BME280;8798;51.938;4.348;2023-04-06T09:41:54;101573.78;;;10.19;65.10
17362;BME280;8798;51.938;4.348;2023-04-06T09:44:22;101585.25;;;10.21;64.72
17362;BME280;8798;51.938;4.348;2023-04-06T09:46:53;101587.94;;;10.21;65.33
17362;BME280;8798;51.938;4.348;2023-04-06T09:49:27;101589.63;;;10.22;65.03
17362;BME280;8798;51.938;4.348;2023-04-06T09:51:58;101572.06;;;10.18;65.13
17362;BME280;8798;51.938;4.348;2023-04-06T09:54:28;101578.16;;;10.20;65.39
17362;BME280;8798;51.938;4.348;2023-04-06T09:57:03;101587.03;;;10.21;65.43
17362;BME280;8798;51.938;4.348;2023-04-06T09:59:38;101572.91;;;10.19;65.52
17362;BME280;8798;51.938;4.348;2023-04-06T10:02:15;101574.75;;;10.18;65.29
17362;BME280;8798;51.938;4.348;2023-04-06T10:04:51;101563.28;;;10.16;65.84
17362;BME280;8798;51.938;4.348;2023-04-06T10:07:21;101566.69;;;10.18;66.11
17362;BME280;8798;51.938;4.348;2023-04-06T10:09:50;101565.00;;;10.17;66.10
17362;BME280;8798;51.938;4.348;2023-04-06T10:12:20;101567.53;;;10.19;66.03
17362;BME280;8798;51.938;4.348;2023-04-06T10:14:48;101572.06;;;10.18;66.13
17362;BME280;8798;51.938;4.348;2023-04-06T10:17:16;101572.66;;;10.22;66.57
17362;BME280;8798;51.938;4.348;2023-04-06T10:19:55;101588.50;;;10.25;66.31
17362;BME280;8798;51.938;4.348;2023-04-06T10:22:29;101591.19;;;10.25;66.36
17362;BME280;8798;51.938;4.348;2023-04-06T10:24:59;101604.50;;;10.26;66.66
17362;BME280;8798;51.938;4.348;2023-04-06T10:27:30;101585.94;;;10.23;66.65
17362;BME280;8798;51.938;4.348;2023-04-06T10:30:01;101578.88;;;10.22;66.93
17362;BME280;8798;51.938;4.348;2023-04-06T10:32:37;101608.63;;;10.30;67.11
17362;BME280;8798;51.938;4.348;2023-04-06T10:35:09;101629.00;;;10.33;67.20
17362;BME280;8798;51.938;4.348;2023-04-06T10:37:49;101631.44;;;10.36;67.25
17362;BME280;8798;51.938;4.348;2023-04-06T10:40:19;101612.16;;;10.31;67.24
17362;BME280;8798;51.938;4.348;2023-04-06T10:42:48;101604.09;;;10.31;67.98
17362;BME280;8798;51.938;4.348;2023-04-06T10:45:20;101620.81;;;10.35;67.59
17362;BME280;8798;51.938;4.348;2023-04-06T10:47:48;101623.38;;;10.36;67.50
17362;BME280;8798;51.938;4.348;2023-04-06T10:50:16;101615.44;;;10.35;67.51
17362;BME280;8798;51.938;4.348;2023-04-06T10:52:44;101617.13;;;10.36;67.69
17362;BME280;8798;51.938;4.348;2023-04-06T10:55:14;101605.66;;;10.33;67.93
17362;BME280;8798;51.938;4.348;2023-04-06T10:57:42;101598.72;;;10.31;68.08
17362;BME280;8798;51.938;4.348;2023-04-06T11:00:12;101567.88;;;10.25;68.40
17362;BME280;8798;51.938;4.348;2023-04-06T11:02:40;101561.91;;;10.22;68.28
17362;BME280;8798;51.938;4.348;2023-04-06T11:05:11;101549.63;;;10.19;68.37
17362;BME280;8798;51.938;4.348;2023-04-06T11:07:40;101539.13;;;10.16;68.35
17362;BME280;8798;51.938;4.348;2023-04-06T11:10:09;101547.78;;;10.20;68.63
17362;BME280;8798;51.938;4.348;2023-04-06T11:12:44;101562.66;;;10.24;68.58
17362;BME280;8798;51.938;4.348;2023-04-06T11:15:14;101573.13;;;10.27;68.80
17362;BME280;8798;51.938;4.348;2023-04-06T11:17:42;101592.50;;;10.30;68.60
17362;BME280;8798;51.938;4.348;2023-04-06T11:20:11;101582.63;;;10.31;69.05
17362;BME280;8798;51.938;4.348;2023-04-06T11:22:48;101584.34;;;10.32;68.87
17362;BME280;8798;51.938;4.348;2023-04-06T11:25:16;101608.97;;;10.37;69.09
17362;BME280;8798;51.938;4.348;2023-04-06T11:27:45;101605.44;;;10.37;69.15
17362;BME280;8798;51.938;4.348;2023-04-06T11:30:14;101614.22;;;10.39;69.31
17362;BME280;8798;51.938;4.348;2023-04-06T11:32:44;101611.25;;;10.42;69.43
17362;BME280;8798;51.938;4.348;2023-04-06T11:35:19;101628.94;;;10.44;69.18
17362;BME280;8798;51.938;4.348;2023-04-06T11:37:48;101619.16;;;10.43;69.44
17362;BME280;8798;51.938;4.348;2023-04-06T11:40:20;101620.75;;;10.46;69.36
17362;BME280;8798;51.938;4.348;2023-04-06T11:42:52;101642.72;;;10.51;69.82
17362;BME280;8798;51.938;4.348;2023-04-06T11:45:22;101650.78;;;10.51;69.88
17362;BME280;8798;51.938;4.348;2023-04-06T11:47:55;101630.41;;;10.48;69.77
17362;BME280;8798;51.938;4.348;2023-04-06T11:50:24;101627.72;;;10.48;69.67
17362;BME280;8798;51.938;4.348;2023-04-06T11:52:59;101608.19;;;10.46;69.94
17362;BME280;8798;51.938;4.348;2023-04-06T11:55:27;101600.25;;;10.45;69.89
17362;BME280;8798;51.938;4.348;2023-04-06T11:57:59;101594.16;;;10.43;70.27
17362;BME280;8798;51.938;4.348;2023-04-06T12:00:28;101592.31;;;10.43;70.35
17362;BME280;8798;51.938;4.348;2023-04-06T12:03:00;101566.84;;;10.38;70.41
17362;BME280;8798;51.938;4.348;2023-04-06T12:05:28;101566.84;;;10.38;70.06
17362;BME280;8798;51.938;4.348;2023-04-06T12:07:56;101556.25;;;10.36;70.20
17362;BME280;8798;51.938;4.348;2023-04-06T12:10:28;101538.69;;;10.32;70.40
17362;BME280;8798;51.938;4.348;2023-04-06T12:12:56;101546.75;;;10.32;70.22
17362;BME280;8798;51.938;4.348;2023-04-06T12:15:24;101513.19;;;10.26;70.63
17362;BME280;8798;51.938;4.348;2023-04-06T12:17:53;101514.16;;;10.25;70.55
17362;BME280;8798;51.938;4.348;2023-04-06T12:20:21;101514.88;;;10.27;70.81
17362;BME280;8798;51.938;4.348;2023-04-06T12:22:53;101521.13;;;10.28;70.99
17362;BME280;8798;51.938;4.348;2023-04-06T12:25:21;101508.78;;;10.25;70.95
17362;BME280;8798;51.938;4.348;2023-04-06T12:27:49;101493.81;;;10.23;71.35
17362;BME280;8798;51.938;4.348;2023-04-06T12:30:17;101502.69;;;10.23;70.89
17362;BME280;8798;51.938;4.348;2023-04-06T12:32:45;101514.88;;;10.27;71.51
17362;BME280;8798;51.938;4.348;2023-04-06T12:35:18;101512.13;;;10.29;71.38
17362;BME280;8798;51.938;4.348;2023-04-06T12:37:45;101510.50;;;10.26;71.47
17362;BME280;8798;51.938;4.348;2023-04-06T12:40:13;101495.53;;;10.24;71.35
17362;BME280;8798;51.938;4.348;2023-04-06T12:42:41;101489.28;;;10.23;71.74
17362;BME280;8798;51.938;4.348;2023-04-06T12:45:10;101485.75;;;10.23;71.83
17362;BME280;8798;51.938;4.348;2023-04-06T12:47:38;101480.53;;;10.21;71.93
17362;BME280;8798;51.938;4.348;2023-04-06T12:50:06;101490.16;;;10.24;71.76
17362;BME280;8798;51.938;4.348;2023-04-06T12:52:36;101505.16;;;10.26;72.11
17362;BME280;8798;51.938;4.348;2023-04-06T12:55:04;101492.69;;;10.25;72.07
17362;BME280;8798;51.938;4.348;2023-04-06T12:57:32;101495.25;;;10.27;71.90
17362;BME280;8798;51.938;4.348;2023-04-06T13:00:00;101496.97;;;10.28;72.00
17362;BME280;8798;51.938;4.348;2023-04-06T13:02:30;101514.53;;;10.32;72.04
17362;BME280;8798;51.938;4.348;2023-04-06T13:04:58;101520.75;;;10.32;72.30
17362;BME280;8798;51.938;4.348;2023-04-06T13:07:26;101539.97;;;10.38;72.71
17362;BME280;8798;51.938;4.348;2023-04-06T13:09:55;101541.56;;;10.40;72.38
17362;BME280;8798;51.938;4.348;2023-04-06T13:12:23;101538.03;;;10.40;72.44
17362;BME280;8798;51.938;4.348;2023-04-06T13:14:52;101547.66;;;10.42;72.58